createdAt,value
2018-08-17T00:00:57.325Z,7.47
2018-08-17T00:02:01.645Z,7.85
2018-08-17T00:03:06.190Z,6.80
2018-08-17T00:04:10.572Z,7.50
2018-08-17T00:05:14.833Z,7.40
2018-08-17T00:06:19.237Z,7.55
2018-08-17T00:07:23.505Z,7.28
2018-08-17T00:08:27.941Z,7.58
2018-08-17T00:09:32.206Z,8.20
2018-08-17T00:10:36.672Z,7.80
2018-08-17T00:11:41.069Z,7.20
2018-08-17T00:12:45.189Z,7.65
2018-08-17T00:13:49.492Z,7.72
2018-08-17T00:14:53.718Z,8.00
2018-08-17T00:15:57.906Z,9.83
2018-08-17T00:17:02.694Z,8.20
2018-08-17T00:18:07.011Z,6.58
2018-08-17T00:19:11.125Z,7.92
2018-08-17T00:20:15.661Z,7.65
2018-08-17T00:21:20.138Z,6.58
2018-08-17T00:22:24.441Z,7.67
2018-08-17T00:23:28.934Z,7.30
2018-08-17T00:24:33.061Z,8.00
2018-08-17T00:25:43.903Z,7.80
2018-08-17T00:26:48.205Z,7.50
2018-08-17T00:27:53.133Z,6.83
2018-08-17T00:28:57.568Z,8.00
2018-08-17T00:30:02.156Z,7.90
2018-08-17T00:31:06.767Z,7.10
2018-08-17T00:32:10.976Z,7.08
2018-08-17T00:33:15.530Z,8.25
2018-08-17T00:34:19.921Z,7.40
2018-08-17T00:35:24.050Z,7.72
2018-08-17T00:36:28.328Z,7.80
2018-08-17T00:37:32.772Z,7.50
2018-08-17T00:38:37.225Z,6.50
2018-08-17T00:39:41.532Z,7.50
2018-08-17T00:40:45.714Z,7.37
2018-08-17T00:41:50.064Z,8.13
2018-08-17T00:42:54.308Z,7.10
2018-08-17T00:43:58.617Z,7.03
2018-08-17T00:45:02.765Z,7.97
2018-08-17T00:46:07.906Z,7.58
2018-08-17T00:47:12.219Z,7.30
2018-08-17T00:48:16.414Z,7.95
2018-08-17T00:49:20.826Z,6.65
2018-08-17T00:50:25.077Z,8.03
2018-08-17T00:51:29.307Z,7.78
2018-08-17T00:52:33.837Z,7.78
2018-08-17T00:53:38.065Z,7.08
2018-08-17T00:54:42.190Z,7.60
2018-08-17T00:55:46.477Z,7.33
2018-08-17T00:56:50.742Z,8.48
2018-08-17T00:57:54.834Z,7.83
2018-08-17T00:58:59.340Z,7.97
2018-08-17T01:00:03.442Z,8.25
2018-08-17T01:01:07.619Z,7.40
2018-08-17T01:02:11.837Z,7.95
2018-08-17T01:03:16.028Z,6.85
2018-08-17T01:04:20.182Z,7.62
2018-08-17T01:05:24.720Z,8.58
2018-08-17T01:06:28.883Z,8.18
2018-08-17T01:07:33.131Z,7.53
2018-08-17T01:08:37.511Z,8.20
2018-08-17T01:09:41.650Z,7.80
2018-08-17T01:10:45.928Z,8.68
2018-08-17T01:11:50.039Z,7.10
2018-08-17T01:12:54.171Z,7.58
2018-08-17T01:13:58.319Z,8.48
2018-08-17T01:15:02.594Z,7.30
2018-08-17T01:16:06.876Z,8.20
2018-08-17T01:17:11.287Z,8.60
2018-08-17T01:18:15.605Z,7.95
2018-08-17T01:19:19.857Z,8.15
2018-08-17T01:20:24.428Z,8.08
2018-08-17T01:21:28.703Z,8.10
2018-08-17T01:22:33.242Z,9.60
2018-08-17T01:23:37.450Z,7.45
2018-08-17T01:24:41.842Z,6.90
2018-08-17T01:25:46.055Z,8.55
2018-08-17T01:26:50.438Z,8.25
2018-08-17T01:27:54.814Z,7.45
2018-08-17T01:28:59.621Z,7.72
2018-08-17T01:30:03.723Z,7.15
2018-08-17T01:31:07.907Z,8.08
2018-08-17T01:32:12.253Z,7.97
2018-08-17T01:33:16.386Z,8.10
2018-08-17T01:34:20.778Z,7.50
2018-08-17T01:35:25.227Z,7.72
2018-08-17T01:36:29.638Z,8.35
2018-08-17T01:37:33.730Z,7.33
2018-08-17T01:38:38.168Z,7.10
2018-08-17T01:39:42.285Z,8.10
2018-08-17T01:40:46.429Z,6.47
2018-08-17T01:41:50.638Z,7.90
2018-08-17T01:42:55.439Z,8.15
2018-08-17T01:43:59.691Z,8.38
2018-08-17T01:45:03.983Z,8.15
2018-08-17T01:46:08.115Z,7.42
2018-08-17T01:47:12.637Z,8.18
2018-08-17T01:48:16.850Z,7.37
2018-08-17T01:49:21.094Z,6.60
2018-08-17T01:50:25.551Z,7.58
2018-08-17T01:51:29.925Z,8.00
2018-08-17T01:52:34.173Z,7.85
2018-08-17T01:53:38.381Z,7.55
2018-08-17T01:54:42.946Z,9.13
2018-08-17T01:55:47.384Z,7.65
2018-08-17T01:56:51.656Z,8.10
2018-08-17T01:57:55.784Z,7.87
2018-08-17T01:59:00.015Z,7.72
2018-08-17T02:00:04.674Z,9.03
2018-08-17T02:01:09.294Z,8.13
2018-08-17T02:02:13.797Z,7.60
2018-08-17T02:03:18.081Z,8.43
2018-08-17T02:04:22.238Z,7.65
2018-08-17T02:05:26.442Z,7.58
2018-08-17T02:06:31.194Z,7.05
2018-08-17T02:07:35.692Z,7.35
2018-08-17T02:08:40.254Z,8.00
2018-08-17T02:09:44.552Z,8.03
2018-08-17T02:10:49.196Z,7.22
2018-08-17T02:11:53.585Z,7.45
2018-08-17T02:12:57.715Z,7.67
2018-08-17T02:14:01.805Z,7.62
2018-08-17T02:15:05.924Z,7.72
2018-08-17T02:16:10.172Z,7.15
2018-08-17T02:17:14.564Z,7.45
2018-08-17T02:18:19.025Z,6.60
2018-08-17T02:19:23.123Z,7.33
2018-08-17T02:20:27.335Z,7.12
2018-08-17T02:21:31.586Z,7.45
2018-08-17T02:22:35.989Z,7.60
2018-08-17T02:23:40.522Z,7.22
2018-08-17T02:24:44.948Z,7.85
2018-08-17T02:25:49.271Z,7.53
2018-08-17T02:26:53.388Z,7.37
2018-08-17T02:27:57.822Z,8.03
2018-08-17T02:29:02.003Z,8.03
2018-08-17T02:30:06.809Z,7.62
2018-08-17T02:31:10.959Z,8.78
2018-08-17T02:32:15.424Z,8.08
2018-08-17T02:33:19.896Z,8.03
2018-08-17T02:34:24.350Z,7.30
2018-08-17T02:35:28.490Z,6.53
2018-08-17T02:36:32.721Z,8.43
2018-08-17T02:37:36.802Z,7.80
2018-08-17T02:38:41.250Z,8.15
2018-08-17T02:39:45.414Z,7.15
2018-08-17T02:40:49.773Z,7.75
2018-08-17T02:41:54.065Z,7.87
2018-08-17T02:42:58.636Z,7.47
2018-08-17T02:44:02.786Z,7.62
2018-08-17T02:45:07.438Z,7.90
2018-08-17T02:46:11.590Z,8.18
2018-08-17T02:47:15.809Z,7.55
2018-08-17T02:48:20.426Z,7.67
2018-08-17T02:49:25.007Z,7.87
2018-08-17T02:50:29.420Z,6.83
2018-08-17T02:51:33.749Z,7.47
2018-08-17T02:52:38.175Z,7.30
2018-08-17T02:53:42.769Z,7.70
2018-08-17T02:54:47.265Z,7.25
2018-08-17T02:55:51.812Z,6.78
2018-08-17T02:56:55.997Z,7.45
2018-08-17T02:58:00.205Z,6.72
2018-08-17T02:59:04.395Z,6.75
2018-08-17T03:00:08.577Z,7.25
2018-08-17T03:01:12.793Z,7.22
2018-08-17T03:02:17.196Z,7.20
2018-08-17T03:03:21.322Z,7.20
2018-08-17T03:04:25.557Z,7.30
2018-08-17T03:05:29.909Z,7.15
2018-08-17T03:06:34.401Z,6.20
2018-08-17T03:07:38.528Z,7.17
2018-08-17T03:08:43.000Z,7.42
2018-08-17T03:09:47.678Z,6.90
2018-08-17T03:10:51.816Z,6.42
2018-08-17T03:11:56.013Z,7.22
2018-08-17T03:13:00.210Z,8.18
2018-08-17T03:14:05.010Z,5.90
2018-08-17T03:15:09.328Z,10.13
2018-08-17T03:16:13.583Z,6.37
2018-08-17T03:17:17.943Z,6.47
2018-08-17T03:18:22.153Z,6.10
2018-08-17T03:19:26.385Z,9.13
2018-08-17T03:20:30.968Z,7.78
2018-08-17T03:21:35.169Z,6.10
2018-08-17T03:22:39.413Z,7.75
2018-08-17T03:23:43.524Z,6.33
2018-08-17T03:24:48.037Z,6.10
2018-08-17T03:25:52.240Z,6.83
2018-08-17T03:26:56.712Z,6.42
2018-08-17T03:28:01.023Z,6.40
2018-08-17T03:29:05.265Z,7.33
2018-08-17T03:30:09.518Z,6.87
2018-08-17T03:31:13.801Z,6.80
2018-08-17T03:32:18.264Z,6.75
2018-08-17T03:33:22.425Z,5.85
2018-08-17T03:34:26.630Z,6.95
2018-08-17T03:35:30.757Z,5.97
2018-08-17T03:36:35.313Z,6.45
2018-08-17T03:37:39.550Z,6.80
2018-08-17T03:38:43.860Z,5.90
2018-08-17T03:39:48.200Z,6.50
2018-08-17T03:40:52.417Z,6.87
2018-08-17T03:41:56.750Z,7.67
2018-08-17T03:43:01.077Z,6.30
2018-08-17T03:44:05.325Z,6.40
2018-08-17T03:45:09.512Z,6.58
2018-08-17T03:46:13.799Z,6.80
2018-08-17T03:47:18.196Z,9.05
2018-08-17T03:48:22.408Z,6.33
2018-08-17T03:49:27.072Z,6.58
2018-08-17T03:50:31.435Z,7.33
2018-08-17T03:51:35.656Z,8.53
2018-08-17T03:52:40.154Z,6.22
2018-08-17T03:53:44.460Z,7.55
2018-08-17T03:54:48.755Z,6.42
2018-08-17T03:55:52.920Z,6.70
2018-08-17T03:56:57.243Z,6.58
2018-08-17T03:58:01.561Z,6.78
2018-08-17T03:59:06.009Z,6.80
2018-08-17T04:00:10.341Z,6.62
2018-08-17T04:01:14.679Z,7.08
2018-08-17T04:02:18.825Z,7.37
2018-08-17T04:03:23.089Z,5.83
2018-08-17T04:04:27.526Z,6.40
2018-08-17T04:05:31.850Z,6.60
2018-08-17T04:06:36.280Z,8.03
2018-08-17T04:07:40.761Z,7.12
2018-08-17T04:08:45.089Z,6.08
2018-08-17T04:09:49.213Z,6.58
2018-08-17T04:10:53.425Z,6.78
2018-08-17T04:11:57.541Z,5.90
2018-08-17T04:13:01.786Z,7.15
2018-08-17T04:14:06.102Z,6.20
2018-08-17T04:15:10.835Z,6.53
2018-08-17T04:16:14.894Z,6.22
2018-08-17T04:17:19.310Z,6.75
2018-08-17T04:18:23.687Z,6.58
2018-08-17T04:19:27.895Z,6.05
2018-08-17T04:20:32.339Z,7.30
2018-08-17T04:21:36.824Z,6.33
2018-08-17T04:22:41.244Z,6.62
2018-08-17T04:23:45.505Z,6.87
2018-08-17T04:24:49.801Z,6.90
2018-08-17T04:25:54.209Z,5.95
2018-08-17T04:26:58.349Z,7.15
2018-08-17T04:28:02.724Z,7.12
2018-08-17T04:29:06.946Z,6.22
2018-08-17T04:30:11.389Z,7.05
2018-08-17T04:31:15.679Z,6.37
2018-08-17T04:32:20.109Z,6.40
2018-08-17T04:33:24.360Z,6.08
2018-08-17T04:34:28.588Z,6.25
2018-08-17T04:35:32.884Z,7.45
2018-08-17T04:36:37.237Z,6.03
2018-08-17T04:37:41.491Z,6.60
2018-08-17T04:38:45.896Z,7.70
2018-08-17T04:39:50.142Z,6.33
2018-08-17T04:40:54.580Z,7.22
2018-08-17T04:41:58.802Z,6.70
2018-08-17T04:43:03.165Z,7.65
2018-08-17T04:44:07.700Z,6.55
2018-08-17T04:45:12.173Z,6.95
2018-08-17T04:46:16.464Z,6.35
2018-08-17T04:47:20.959Z,6.53
2018-08-17T04:48:25.346Z,7.45
2018-08-17T04:49:29.623Z,7.10
2018-08-17T04:50:34.036Z,7.28
2018-08-17T04:51:38.644Z,7.30
2018-08-17T04:52:43.037Z,7.62
2018-08-17T04:53:47.156Z,7.53
2018-08-17T04:54:51.666Z,7.83
2018-08-17T04:55:55.872Z,7.95
2018-08-17T04:57:00.026Z,7.60
2018-08-17T04:58:04.434Z,7.45
2018-08-17T04:59:08.874Z,8.13
2018-08-17T05:00:13.249Z,8.13
2018-08-17T05:01:17.435Z,7.42
2018-08-17T05:02:23.496Z,7.42
2018-08-17T05:03:28.280Z,7.87
2018-08-17T05:04:32.263Z,7.10
2018-08-17T05:05:36.694Z,7.60
2018-08-17T05:06:40.929Z,6.72
2018-08-17T05:07:45.052Z,7.03
2018-08-17T05:08:49.184Z,6.87
2018-08-17T05:09:53.402Z,7.17
2018-08-17T05:10:57.695Z,8.58
2018-08-17T05:12:01.903Z,7.30
2018-08-17T05:13:06.398Z,7.83
2018-08-17T05:14:10.550Z,8.83
2018-08-17T05:15:14.765Z,7.45
2018-08-17T05:16:19.195Z,7.95
2018-08-17T05:17:23.540Z,7.15
2018-08-17T05:18:27.944Z,7.12
2018-08-17T05:19:32.157Z,7.25
2018-08-17T05:20:36.737Z,7.75
2018-08-17T05:21:40.984Z,7.85
2018-08-17T05:22:45.169Z,7.50
2018-08-17T05:23:49.288Z,8.20
2018-08-17T05:24:53.437Z,7.83
2018-08-17T05:25:57.664Z,8.48
2018-08-17T05:27:02.095Z,8.90
2018-08-17T05:28:06.706Z,7.33
2018-08-17T05:29:10.855Z,8.60
2018-08-17T05:30:15.220Z,8.20
2018-08-17T05:31:19.556Z,8.28
2018-08-17T05:32:23.969Z,8.33
2018-08-17T05:33:28.635Z,8.65
2018-08-17T05:34:33.027Z,8.83
2018-08-17T05:35:37.547Z,7.58
2018-08-17T05:36:41.966Z,9.18
2018-08-17T05:37:46.696Z,8.20
2018-08-17T05:38:51.006Z,11.48
2018-08-17T05:39:55.217Z,8.25
2018-08-17T05:41:00.981Z,8.98
2018-08-17T05:42:05.221Z,8.75
2018-08-17T05:43:09.634Z,9.35
2018-08-17T05:44:14.012Z,8.58
2018-08-17T05:45:18.330Z,8.33
2018-08-17T05:46:22.533Z,7.75
2018-08-17T05:47:26.941Z,8.38
2018-08-17T05:48:31.404Z,10.80
2018-08-17T05:49:35.568Z,8.85
2018-08-17T05:50:40.126Z,9.85
2018-08-17T05:51:44.857Z,10.38
2018-08-17T05:52:49.155Z,12.20
2018-08-17T05:53:53.471Z,15.48
2018-08-17T05:54:57.974Z,9.83
2018-08-17T05:56:04.511Z,11.18
2018-08-17T05:57:08.628Z,9.50
2018-08-17T05:58:13.104Z,9.55
2018-08-17T05:59:18.681Z,9.08
2018-08-17T06:00:23.272Z,9.70
2018-08-17T06:01:27.433Z,10.30
2018-08-17T06:02:31.857Z,9.75
2018-08-17T06:03:36.932Z,8.48
2018-08-17T06:04:41.113Z,10.85
2018-08-17T06:05:45.741Z,11.85
2018-08-17T06:06:50.017Z,9.25
2018-08-17T06:07:54.293Z,10.08
2018-08-17T06:08:58.772Z,9.33
2018-08-17T06:10:03.258Z,9.68
2018-08-17T06:11:07.714Z,10.95
2018-08-17T06:12:11.983Z,17.80
2018-08-17T06:13:16.371Z,11.18
2018-08-17T06:14:20.920Z,8.85
2018-08-17T06:15:25.146Z,7.17
2018-08-17T06:16:29.540Z,7.83
2018-08-17T06:17:33.821Z,8.13
2018-08-17T06:18:38.165Z,7.58
2018-08-17T06:19:42.355Z,7.97
2018-08-17T06:20:46.616Z,8.55
2018-08-17T06:21:51.026Z,8.38
2018-08-17T06:22:55.398Z,8.73
2018-08-17T06:23:59.865Z,9.03
2018-08-17T06:25:08.360Z,7.85
2018-08-17T06:26:12.765Z,9.50
2018-08-17T06:27:16.987Z,8.25
2018-08-17T06:28:21.246Z,7.75
2018-08-17T06:29:25.604Z,7.42
2018-08-17T06:30:30.013Z,9.40
2018-08-17T06:31:34.194Z,7.47
2018-08-17T06:32:38.562Z,7.67
2018-08-17T06:33:43.034Z,8.40
2018-08-17T06:34:47.709Z,8.30
2018-08-17T06:35:52.016Z,8.15
2018-08-17T06:36:56.493Z,7.78
2018-08-17T06:38:01.156Z,7.15
2018-08-17T06:39:08.230Z,7.58
2018-08-17T06:40:12.491Z,7.92
2018-08-17T06:41:16.727Z,8.15
2018-08-17T06:42:21.173Z,9.00
2018-08-17T06:43:25.550Z,7.78
2018-08-17T06:44:29.768Z,8.35
2018-08-17T06:45:34.355Z,8.25
2018-08-17T06:46:38.628Z,6.90
2018-08-17T06:47:42.965Z,8.28
2018-08-17T06:48:47.583Z,12.18
2018-08-17T06:49:51.960Z,6.95
2018-08-17T06:50:56.347Z,8.60
2018-08-17T06:52:00.713Z,7.67
2018-08-17T06:53:04.915Z,7.15
2018-08-17T06:54:09.144Z,9.00
2018-08-17T06:55:13.759Z,7.20
2018-08-17T06:56:17.868Z,12.13
2018-08-17T06:57:22.215Z,7.08
2018-08-17T06:58:26.659Z,6.50
2018-08-17T06:59:30.971Z,7.05
2018-08-17T07:00:35.358Z,6.87
2018-08-17T07:01:39.724Z,7.35
2018-08-17T07:02:45.216Z,6.72
2018-08-17T07:03:49.375Z,6.83
2018-08-17T07:04:53.525Z,6.47
2018-08-17T07:05:58.129Z,6.92
2018-08-17T07:07:02.607Z,7.55
2018-08-17T07:08:07.280Z,6.15
2018-08-17T07:09:12.104Z,7.10
2018-08-17T07:10:16.335Z,7.15
2018-08-17T07:11:20.461Z,6.90
2018-08-17T07:12:24.865Z,7.05
2018-08-17T07:13:29.237Z,7.00
2018-08-17T07:14:33.548Z,7.87
2018-08-17T07:15:37.783Z,8.93
2018-08-17T07:16:42.061Z,6.80
2018-08-17T07:17:46.192Z,6.90
2018-08-17T07:18:50.780Z,7.25
2018-08-17T07:19:55.305Z,7.65
2018-08-17T07:20:59.686Z,7.55
2018-08-17T07:22:05.270Z,6.12
2018-08-17T07:23:09.545Z,5.75
2018-08-17T07:24:13.677Z,9.78
2018-08-17T07:25:18.050Z,6.15
2018-08-17T07:26:22.386Z,6.00
2018-08-17T07:27:27.074Z,6.10
2018-08-17T07:28:31.530Z,6.67
2018-08-17T07:29:35.843Z,6.25
2018-08-17T07:30:40.489Z,7.00
2018-08-17T07:31:45.018Z,6.30
2018-08-17T07:32:49.253Z,6.00
2018-08-17T07:33:53.403Z,6.00
2018-08-17T07:34:57.567Z,8.95
2018-08-17T07:36:01.875Z,6.37
2018-08-17T07:37:06.008Z,7.95
2018-08-17T07:38:10.152Z,6.35
2018-08-17T07:39:14.552Z,13.18
2018-08-17T07:40:18.781Z,8.68
2018-08-17T07:41:22.980Z,6.58
2018-08-17T07:42:27.489Z,5.85
2018-08-17T07:43:31.843Z,8.40
2018-08-17T07:44:36.306Z,6.70
2018-08-17T07:45:40.713Z,7.12
2018-08-17T07:46:44.898Z,6.30
2018-08-17T07:47:49.082Z,5.78
2018-08-17T07:48:53.851Z,6.15
2018-08-17T07:49:58.078Z,6.42
2018-08-17T07:51:02.377Z,5.60
2018-08-17T07:52:06.717Z,7.30
2018-08-17T07:53:10.841Z,5.53
2018-08-17T07:54:15.019Z,6.15
2018-08-17T07:55:19.222Z,5.70
2018-08-17T07:56:23.266Z,6.25
2018-08-17T07:57:27.553Z,7.15
2018-08-17T07:58:31.850Z,7.22
2018-08-17T07:59:36.210Z,7.30
2018-08-17T08:00:40.365Z,6.33
2018-08-17T08:01:44.831Z,6.05
2018-08-17T08:02:49.056Z,5.30
2018-08-17T08:03:53.435Z,6.47
2018-08-17T08:04:57.842Z,6.28
2018-08-17T08:06:02.017Z,7.50
2018-08-17T08:07:06.415Z,7.40
2018-08-17T08:08:10.537Z,5.62
2018-08-17T08:09:14.981Z,6.87
2018-08-17T08:10:19.253Z,6.22
2018-08-17T08:11:23.410Z,6.70
2018-08-17T08:12:27.490Z,7.60
2018-08-17T08:13:31.975Z,6.60
2018-08-17T08:14:36.151Z,5.30
2018-08-17T08:15:40.625Z,6.95
2018-08-17T08:16:44.859Z,5.83
2018-08-17T08:17:49.254Z,6.67
2018-08-17T08:18:53.534Z,5.50
2018-08-17T08:20:09.161Z,6.45
2018-08-17T08:21:13.308Z,6.25
2018-08-17T08:22:17.789Z,7.72
2018-08-17T08:23:26.469Z,7.70
2018-08-17T08:24:32.580Z,6.65
2018-08-17T08:25:36.916Z,6.00
2018-08-17T08:26:41.248Z,5.20
2018-08-17T08:27:45.609Z,6.65
2018-08-17T08:28:49.714Z,7.75
2018-08-17T08:29:53.965Z,6.50
2018-08-17T08:30:58.328Z,5.53
2018-08-17T08:32:02.688Z,6.70
2018-08-17T08:33:06.834Z,10.50
2018-08-17T08:34:10.980Z,5.95
2018-08-17T08:35:15.196Z,9.18
2018-08-17T08:36:19.397Z,8.18
2018-08-17T08:37:23.689Z,6.10
2018-08-17T08:38:27.888Z,4.83
2018-08-17T08:39:32.325Z,5.83
2018-08-17T08:40:36.569Z,5.40
2018-08-17T08:41:41.033Z,5.30
2018-08-17T08:42:45.436Z,5.65
2018-08-17T08:43:49.629Z,4.92
2018-08-17T08:44:53.913Z,4.90
2018-08-17T08:45:58.089Z,5.15
2018-08-17T08:47:02.272Z,6.30
2018-08-17T08:48:07.341Z,5.60
2018-08-17T08:49:11.826Z,6.05
2018-08-17T08:50:16.443Z,6.58
2018-08-17T08:51:20.841Z,9.33
2018-08-17T08:52:25.215Z,6.30
2018-08-17T08:53:29.574Z,6.12
2018-08-17T08:54:33.787Z,5.85
2018-08-17T08:55:38.122Z,6.40
2018-08-17T08:56:42.545Z,6.10
2018-08-17T08:57:46.825Z,5.60
2018-08-17T08:58:51.234Z,6.78
2018-08-17T08:59:55.370Z,5.95
2018-08-17T09:00:59.582Z,6.45
2018-08-17T09:02:03.817Z,5.97
2018-08-17T09:03:08.168Z,5.53
2018-08-17T09:04:12.391Z,8.75
2018-08-17T09:05:16.670Z,7.35
2018-08-17T09:06:21.776Z,5.08
2018-08-17T09:07:26.092Z,7.20
2018-08-17T09:08:30.317Z,8.20
2018-08-17T09:09:34.684Z,6.10
2018-08-17T09:10:38.918Z,5.92
2018-08-17T09:11:43.394Z,4.83
2018-08-17T09:12:47.701Z,6.35
2018-08-17T09:13:51.882Z,6.20
2018-08-17T09:14:55.945Z,9.48
2018-08-17T09:16:00.108Z,7.92
2018-08-17T09:17:04.227Z,8.78
2018-08-17T09:18:08.426Z,5.35
2018-08-17T09:19:12.717Z,6.00
2018-08-17T09:20:17.327Z,5.58
2018-08-17T09:21:21.748Z,7.50
2018-08-17T09:22:25.870Z,5.60
2018-08-17T09:23:30.486Z,6.33
2018-08-17T09:24:34.841Z,4.78
2018-08-17T09:25:39.013Z,6.00
2018-08-17T09:26:43.264Z,6.12
2018-08-17T09:27:47.656Z,5.35
2018-08-17T09:28:51.922Z,6.25
2018-08-17T09:29:56.305Z,6.08
2018-08-17T09:31:00.475Z,6.33
2018-08-17T09:32:04.985Z,5.90
2018-08-17T09:33:09.354Z,5.72
2018-08-17T09:34:13.496Z,5.33
2018-08-17T09:35:19.508Z,5.10
2018-08-17T09:36:23.857Z,5.28
2018-08-17T09:37:28.316Z,6.40
2018-08-17T09:38:32.435Z,5.25
2018-08-17T09:39:36.713Z,5.03
2018-08-17T09:40:40.950Z,5.78
2018-08-17T09:41:45.629Z,5.10
2018-08-17T09:42:49.972Z,4.67
2018-08-17T09:43:54.221Z,5.30
2018-08-17T09:44:58.482Z,5.30
2018-08-17T09:46:02.818Z,4.53
2018-08-17T09:47:07.154Z,5.22
2018-08-17T09:48:11.293Z,5.00
2018-08-17T09:49:15.859Z,5.17
2018-08-17T09:50:20.463Z,8.58
2018-08-17T09:51:24.829Z,7.58
2018-08-17T09:52:29.131Z,4.75
2018-08-17T09:53:33.651Z,4.65
2018-08-17T09:54:38.066Z,4.78
2018-08-17T09:55:42.541Z,4.45
2018-08-17T09:56:46.822Z,5.12
2018-08-17T09:57:51.076Z,4.67
2018-08-17T09:58:55.401Z,4.83
2018-08-17T09:59:59.686Z,5.40
2018-08-17T10:01:09.072Z,5.20
2018-08-17T10:02:18.592Z,6.97
2018-08-17T10:03:28.068Z,4.75
2018-08-17T10:04:37.510Z,5.28
2018-08-17T10:05:43.046Z,4.80
2018-08-17T10:06:52.849Z,6.28
2018-08-17T10:08:02.626Z,5.85
2018-08-17T10:09:12.474Z,4.72
2018-08-17T10:10:19.072Z,5.42
2018-08-17T10:11:23.531Z,5.15
2018-08-17T10:12:28.115Z,4.87
2018-08-17T10:13:32.659Z,5.60
2018-08-17T10:14:37.013Z,4.85
2018-08-17T10:15:41.368Z,5.87
2018-08-17T10:16:46.102Z,6.15
2018-08-17T10:17:50.542Z,7.03
2018-08-17T10:18:54.814Z,4.75
2018-08-17T10:19:59.017Z,4.15
2018-08-17T10:21:03.493Z,4.92
2018-08-17T10:22:07.869Z,4.95
2018-08-17T10:23:17.229Z,4.15
2018-08-17T10:24:22.064Z,4.78
2018-08-17T10:25:26.780Z,5.12
2018-08-17T10:26:31.184Z,4.20
2018-08-17T10:27:35.453Z,4.83
2018-08-17T10:28:39.983Z,5.25
2018-08-17T10:29:44.241Z,6.90
2018-08-17T10:30:48.650Z,5.58
2018-08-17T10:31:52.930Z,3.95
2018-08-17T10:32:59.767Z,4.22
2018-08-17T10:34:04.178Z,5.60
2018-08-17T10:35:12.774Z,4.40
2018-08-17T10:36:17.563Z,4.30
2018-08-17T10:37:21.789Z,5.08
2018-08-17T10:38:27.103Z,4.10
2018-08-17T10:39:31.132Z,4.67
2018-08-17T10:40:35.868Z,4.10
2018-08-17T10:41:41.211Z,3.87
2018-08-17T10:42:45.665Z,4.25
2018-08-17T10:43:50.094Z,3.47
2018-08-17T10:44:54.296Z,3.50
2018-08-17T10:45:58.940Z,3.60
2018-08-17T10:47:03.246Z,4.20
2018-08-17T10:48:07.557Z,3.47
2018-08-17T10:49:12.118Z,4.35
2018-08-17T10:50:18.915Z,3.98
2018-08-17T10:51:23.133Z,3.35
2018-08-17T10:52:27.628Z,5.10
2018-08-17T10:53:36.251Z,4.50
2018-08-17T10:54:40.498Z,5.12
2018-08-17T10:55:47.803Z,4.45
2018-08-17T10:56:51.991Z,7.85
2018-08-17T10:57:56.212Z,3.20
2018-08-17T10:59:00.573Z,3.50
2018-08-17T11:00:05.614Z,3.25
2018-08-17T11:01:10.039Z,3.10
2018-08-17T11:02:14.420Z,3.45
2018-08-17T11:03:18.771Z,3.22
2018-08-17T11:04:23.093Z,3.50
2018-08-17T11:05:27.265Z,4.62
2018-08-17T11:06:31.661Z,3.62
2018-08-17T11:07:37.963Z,3.72
2018-08-17T11:08:42.502Z,3.72
2018-08-17T11:09:46.700Z,3.62
2018-08-17T11:10:50.985Z,3.83
2018-08-17T11:11:55.343Z,3.70
2018-08-17T11:12:59.646Z,3.30
2018-08-17T11:14:04.902Z,3.20
2018-08-17T11:15:09.276Z,3.45
2018-08-17T11:16:14.146Z,2.92
2018-08-17T11:17:18.438Z,4.10
2018-08-17T11:18:22.881Z,3.65
2018-08-17T11:19:27.162Z,2.90
2018-08-17T11:20:31.394Z,2.75
2018-08-17T11:21:35.910Z,3.02
2018-08-17T11:22:40.161Z,3.90
2018-08-17T11:23:45.305Z,4.95
2018-08-17T11:24:49.701Z,3.40
2018-08-17T11:25:54.133Z,4.25
2018-08-17T11:26:58.226Z,3.30
2018-08-17T11:28:02.337Z,3.50
2018-08-17T11:29:06.595Z,3.30
2018-08-17T11:30:13.380Z,5.08
2018-08-17T11:31:17.623Z,3.50
2018-08-17T11:32:21.888Z,3.77
2018-08-17T11:33:28.000Z,3.70
2018-08-17T11:34:32.462Z,3.20
2018-08-17T11:35:36.595Z,3.87
2018-08-17T11:36:40.857Z,3.65
2018-08-17T11:37:45.389Z,3.52
2018-08-17T11:38:49.591Z,3.90
2018-08-17T11:40:00.311Z,4.62
2018-08-17T11:41:04.827Z,3.20
2018-08-17T11:42:09.018Z,3.95
2018-08-17T11:43:13.170Z,2.90
2018-08-17T11:44:17.233Z,3.30
2018-08-17T11:45:22.808Z,3.42
2018-08-17T11:46:27.074Z,3.30
2018-08-17T11:47:31.228Z,3.35
2018-08-17T11:48:36.050Z,4.87
2018-08-17T11:49:40.207Z,4.12
2018-08-17T11:50:44.644Z,4.05
2018-08-17T11:51:49.211Z,3.60
2018-08-17T11:52:58.398Z,4.53
2018-08-17T11:54:02.693Z,3.80
2018-08-17T11:55:07.497Z,5.62
2018-08-17T11:56:11.850Z,3.62
2018-08-17T11:57:16.422Z,3.62
2018-08-17T11:58:20.668Z,3.90
2018-08-17T11:59:24.898Z,3.50
2018-08-17T12:00:36.671Z,3.35
2018-08-17T12:01:40.994Z,3.33
2018-08-17T12:02:45.743Z,3.52
2018-08-17T12:03:49.926Z,3.98
2018-08-17T12:04:54.277Z,3.10
2018-08-17T12:05:58.475Z,5.33
2018-08-17T12:07:03.130Z,3.85
2018-08-17T12:08:07.498Z,6.35
2018-08-17T12:09:11.753Z,5.33
2018-08-17T12:10:16.306Z,3.67
2018-08-17T12:11:20.552Z,3.72
2018-08-17T12:12:24.876Z,4.30
2018-08-17T12:13:29.242Z,7.08
2018-08-17T12:14:33.635Z,3.50
2018-08-17T12:15:48.946Z,3.33
2018-08-17T12:16:53.058Z,4.53
2018-08-17T12:17:57.437Z,3.27
2018-08-17T12:19:01.568Z,3.80
2018-08-17T12:20:05.869Z,3.20
2018-08-17T12:21:10.226Z,4.65
2018-08-17T12:22:14.727Z,2.95
2018-08-17T12:23:18.970Z,3.58
2018-08-17T12:24:23.236Z,4.20
2018-08-17T12:25:27.355Z,4.33
2018-08-17T12:26:38.081Z,3.80
2018-08-17T12:27:47.044Z,3.05
2018-08-17T12:28:51.199Z,4.10
2018-08-17T12:29:55.353Z,3.42
2018-08-17T12:31:00.301Z,3.62
2018-08-17T12:32:04.659Z,3.60
2018-08-17T12:33:10.594Z,4.08
2018-08-17T12:34:14.798Z,3.50
2018-08-17T12:35:19.082Z,4.15
2018-08-17T12:36:23.439Z,6.67
2018-08-17T12:37:27.967Z,3.85
2018-08-17T12:38:32.328Z,3.42
2018-08-17T12:39:36.460Z,2.70
2018-08-17T12:40:48.206Z,3.72
2018-08-17T12:41:52.552Z,5.75
2018-08-17T12:42:56.728Z,3.72
2018-08-17T12:44:00.953Z,3.55
2018-08-17T12:45:21.707Z,3.85
2018-08-17T12:46:26.092Z,3.58
2018-08-17T12:47:30.657Z,3.72
2018-08-17T12:48:34.916Z,3.58
2018-08-17T12:49:39.462Z,3.27
2018-08-17T12:50:44.524Z,3.52
2018-08-17T12:51:48.747Z,4.80
2018-08-17T12:52:53.062Z,3.08
2018-08-17T12:53:57.380Z,3.90
2018-08-17T12:55:01.617Z,3.85
2018-08-17T12:56:05.795Z,3.65
2018-08-17T12:57:09.926Z,3.20
2018-08-17T12:58:14.995Z,4.35
2018-08-17T12:59:19.225Z,4.67
2018-08-17T13:00:23.518Z,3.80
2018-08-17T13:01:28.021Z,3.40
2018-08-17T13:02:32.473Z,3.42
2018-08-17T13:03:37.313Z,3.37
2018-08-17T13:04:41.568Z,3.60
2018-08-17T13:05:45.807Z,7.22
2018-08-17T13:06:50.525Z,3.85
2018-08-17T13:07:55.080Z,4.03
2018-08-17T13:08:59.300Z,3.87
2018-08-17T13:10:03.852Z,5.53
2018-08-17T13:11:08.157Z,2.72
2018-08-17T13:12:12.761Z,4.30
2018-08-17T13:13:17.252Z,3.52
2018-08-17T13:14:21.358Z,3.27
2018-08-17T13:15:25.931Z,3.00
2018-08-17T13:16:31.382Z,3.10
2018-08-17T13:17:41.007Z,3.12
2018-08-17T13:18:45.421Z,3.08
2018-08-17T13:19:49.741Z,3.05
2018-08-17T13:20:53.946Z,2.98
2018-08-17T13:21:58.614Z,3.15
2018-08-17T13:23:02.830Z,3.60
2018-08-17T13:24:08.122Z,3.35
2018-08-17T13:25:12.522Z,3.70
2018-08-17T13:26:18.885Z,2.87
2018-08-17T13:27:23.780Z,7.87
2018-08-17T13:28:29.180Z,4.95
2018-08-17T13:29:33.474Z,3.37
2018-08-17T13:30:37.716Z,4.58
2018-08-17T13:31:41.922Z,3.27
2018-08-17T13:32:47.936Z,2.95
2018-08-17T13:33:53.895Z,3.12
2018-08-17T13:34:58.293Z,3.20
2018-08-17T13:36:02.731Z,3.42
2018-08-17T13:37:11.944Z,3.40
2018-08-17T13:38:16.218Z,3.40
2018-08-17T13:39:20.545Z,3.45
2018-08-17T13:40:24.937Z,3.08
2018-08-17T13:41:29.484Z,3.58
2018-08-17T13:42:34.353Z,3.72
2018-08-17T13:43:38.461Z,2.50
2018-08-17T13:44:42.804Z,3.70
2018-08-17T13:45:47.988Z,3.02
2018-08-17T13:46:52.231Z,2.75
2018-08-17T13:47:56.522Z,3.35
2018-08-17T13:49:00.739Z,3.33
2018-08-17T13:50:05.398Z,2.85
2018-08-17T13:51:09.890Z,2.65
2018-08-17T13:52:14.196Z,3.40
2018-08-17T13:53:18.828Z,3.75
2018-08-17T13:54:23.295Z,3.00
2018-08-17T13:55:27.625Z,3.00
2018-08-17T13:56:31.900Z,3.62
2018-08-17T13:57:36.089Z,3.00
2018-08-17T13:58:40.858Z,2.35
2018-08-17T13:59:45.167Z,3.15
2018-08-17T14:00:49.334Z,3.60
2018-08-17T14:01:54.046Z,3.50
2018-08-17T14:02:58.570Z,4.00
2018-08-17T14:04:05.074Z,3.12
2018-08-17T14:05:11.580Z,3.83
2018-08-17T14:06:16.132Z,3.87
2018-08-17T14:07:20.520Z,3.85
2018-08-17T14:08:24.778Z,3.45
2018-08-17T14:09:29.069Z,3.92
2018-08-17T14:10:33.428Z,3.33
2018-08-17T14:11:37.991Z,3.27
2018-08-17T14:12:42.278Z,3.12
2018-08-17T14:13:46.719Z,4.03
2018-08-17T14:14:51.065Z,4.17
2018-08-17T14:15:55.582Z,3.58
2018-08-17T14:16:59.717Z,3.87
2018-08-17T14:18:04.103Z,2.92
2018-08-17T14:19:08.763Z,6.03